Time;durP1;ratioP1;P1;durP2;ratioP2;P2;SDS_P1;SDS_P2;PMS_P1;PMS_P2;Temp;Humidity;BMP_temperature;BMP_pressure;BME280_temperature;BME280_humidity;BME280_pressure;Samples;Min_cycle;Max_cycle;Signal;HPM_P1;HPM_P2
2020/12/21 00:01:45;;;;;;;60.67;26.70;;;;;;;;;;736513;189;919148;-66
2020/12/21 00:04:11;;;;;;;60.20;24.83;;;;;;;;;;734492;187;917932;-67
2020/12/21 00:06:37;;;;;;;58.30;25.75;;;;;;;;;;741165;188;919401;-67
2020/12/21 00:09:02;;;;;;;56.97;24.80;;;;;;;;;;735191;189;919396;-67
2020/12/21 00:11:33;;;;;;;55.53;25.40;;;;;;;;;;735247;189;919136;-66
2020/12/21 00:13:59;;;;;;;51.00;22.70;;;;;;;;;;732472;189;918587;-66
2020/12/21 00:16:25;;;;;;;59.40;26.20;;;;;;;;;;742022;189;918654;-66
2020/12/21 00:18:51;;;;;;;66.40;25.30;;;;;;;;;;733662;189;919217;-66
2020/12/21 00:21:17;;;;;;;55.13;24.60;;;;;;;;;;733807;188;918960;-66
2020/12/21 00:23:42;;;;;;;62.00;23.10;;;;;;;;;;736245;188;1278136;-66
2020/12/21 00:26:08;;;;;;;55.33;25.07;;;;;;;;;;733849;189;919027;-65
2020/12/21 00:28:34;;;;;;;50.43;22.17;;;;;;;;;;731933;189;918527;-66
2020/12/21 00:31:00;;;;;;;48.92;24.75;;;;;;;;;;742395;189;918834;-66
2020/12/21 00:33:26;;;;;;;55.03;24.07;;;;;;;;;;732927;189;919522;-66
2020/12/21 00:35:52;;;;;;;44.28;21.95;;;;;;;;;;735461;188;919152;-67
2020/12/21 00:38:17;;;;;;;54.80;23.97;;;;;;;;;;734558;188;919337;-66
2020/12/21 00:40:43;;;;;;;46.43;22.30;;;;;;;;;;729453;189;918092;-66
2020/12/21 00:43:09;;;;;;;56.20;21.27;;;;;;;;;;737399;187;918584;-66
2020/12/21 00:45:35;;;;;;;44.77;23.07;;;;;;;;;;733033;187;919259;-65
2020/12/21 00:48:01;;;;;;;51.80;20.07;;;;;;;;;;739675;188;919158;-66
2020/12/21 00:50:27;;;;;;;45.67;22.27;;;;;;;;;;731530;188;941555;-66
2020/12/21 00:52:53;;;;;;;50.33;21.37;;;;;;;;;;735901;187;918781;-67
2020/12/21 00:55:18;;;;;;;57.27;22.50;;;;;;;;;;738599;188;918965;-66
2020/12/21 00:57:44;;;;;;;54.37;24.30;;;;;;;;;;736278;187;918620;-66
2020/12/21 01:00:10;;;;;;;51.43;22.90;;;;;;;;;;733590;189;919429;-67
2020/12/21 01:02:36;;;;;;;49.37;23.37;;;;;;;;;;739218;188;918948;-67
2020/12/21 01:05:02;;;;;;;56.27;24.20;;;;;;;;;;735244;188;1244414;-65
2020/12/21 01:07:28;;;;;;;47.97;21.70;;;;;;;;;;735357;189;919274;-66
2020/12/21 01:09:53;;;;;;;49.93;22.53;;;;;;;;;;731603;189;918620;-65
2020/12/21 01:12:20;;;;;;;46.27;20.30;;;;;;;;;;741321;189;919380;-67
2020/12/21 01:14:46;;;;;;;54.77;21.90;;;;;;;;;;733327;188;918945;-67
2020/12/21 01:17:12;;;;;;;44.70;23.77;;;;;;;;;;734561;187;918975;-67
2020/12/21 01:19:38;;;;;;;53.30;22.43;;;;;;;;;;739089;188;919385;-65
2020/12/21 01:22:04;;;;;;;44.60;22.43;;;;;;;;;;734718;188;918742;-67
2020/12/21 01:24:29;;;;;;;48.80;23.00;;;;;;;;;;730978;189;919273;-65
2020/12/21 01:26:55;;;;;;;41.27;18.73;;;;;;;;;;730374;189;918021;-66
2020/12/21 01:29:21;;;;;;;47.17;20.87;;;;;;;;;;738186;189;919382;-65
2020/12/21 01:31:47;;;;;;;40.53;21.60;;;;;;;;;;731534;187;918752;-66
2020/12/21 01:34:14;;;;;;;44.53;21.17;;;;;;;;;;733326;189;919134;-66
2020/12/21 01:36:39;;;;;;;36.37;20.03;;;;;;;;;;728868;189;918508;-66
2020/12/21 01:39:05;;;;;;;43.63;19.20;;;;;;;;;;735404;189;918307;-66
2020/12/21 01:41:31;;;;;;;41.97;20.80;;;;;;;;;;731956;189;919035;-65
2020/12/21 01:43:57;;;;;;;39.07;20.27;;;;;;;;;;735449;189;918230;-66
2020/12/21 01:46:23;;;;;;;40.40;20.00;;;;;;;;;;732779;189;922637;-66
2020/12/21 01:48:49;;;;;;;41.13;21.47;;;;;;;;;;735986;188;921836;-65
2020/12/21 01:51:22;;;;;;;44.40;20.80;;;;;;;;;;741367;189;916824;-66
2020/12/21 01:53:48;;;;;;;45.20;19.33;;;;;;;;;;734309;189;915488;-67
2020/12/21 01:56:14;;;;;;;36.77;17.77;;;;;;;;;;732015;188;919264;-66
2020/12/21 01:58:40;;;;;;;40.05;19.55;;;;;;;;;;736105;188;919287;-66
2020/12/21 02:01:05;;;;;;;39.33;18.97;;;;;;;;;;742749;188;918403;-66
2020/12/21 02:03:31;;;;;;;45.77;24.97;;;;;;;;;;733365;188;919157;-66
2020/12/21 02:05:57;;;;;;;40.83;19.70;;;;;;;;;;735994;187;919018;-66
2020/12/21 02:08:23;;;;;;;44.77;19.30;;;;;;;;;;738932;188;918339;-65
2020/12/21 02:10:49;;;;;;;39.03;21.60;;;;;;;;;;736585;188;918865;-67
2020/12/21 02:13:15;;;;;;;37.17;18.03;;;;;;;;;;730403;188;1511578;-67
2020/12/21 02:15:41;;;;;;;40.58;19.85;;;;;;;;;;736882;189;919204;-66
2020/12/21 02:18:07;;;;;;;39.17;19.80;;;;;;;;;;728970;188;919410;-66
2020/12/21 02:20:33;;;;;;;50.17;20.00;;;;;;;;;;727079;189;919255;-66
2020/12/21 02:22:59;;;;;;;52.80;19.93;;;;;;;;;;733004;188;919952;-67
2020/12/21 02:25:25;;;;;;;40.53;20.83;;;;;;;;;;739373;188;918208;-65
2020/12/21 02:27:51;;;;;;;47.27;19.70;;;;;;;;;;733337;188;920593;-66
2020/12/21 02:30:17;;;;;;;36.60;18.43;;;;;;;;;;736455;189;919159;-66
2020/12/21 02:32:43;;;;;;;49.47;22.80;;;;;;;;;;741356;187;918584;-66
2020/12/21 02:35:08;;;;;;;44.10;20.77;;;;;;;;;;729856;188;1332482;-67
2020/12/21 02:37:34;;;;;;;38.17;19.90;;;;;;;;;;733621;188;919488;-66
2020/12/21 02:40:00;;;;;;;39.13;19.20;;;;;;;;;;736208;189;976169;-66
2020/12/21 02:42:26;;;;;;;36.47;17.77;;;;;;;;;;737980;189;919635;-66
2020/12/21 02:44:52;;;;;;;44.03;19.70;;;;;;;;;;732513;188;924183;-66
2020/12/21 02:47:18;;;;;;;39.47;21.17;;;;;;;;;;732136;189;919085;-66
2020/12/21 02:49:43;;;;;;;37.90;20.40;;;;;;;;;;731449;189;1018562;-65
2020/12/21 02:52:09;;;;;;;44.67;20.63;;;;;;;;;;732989;188;916149;-67
2020/12/21 02:54:35;;;;;;;40.53;19.73;;;;;;;;;;732820;187;914765;-66
2020/12/21 02:57:01;;;;;;;39.13;19.83;;;;;;;;;;741814;188;915436;-66
2020/12/21 02:59:27;;;;;;;36.03;17.83;;;;;;;;;;732420;187;918474;-67
2020/12/21 03:01:53;;;;;;;36.15;18.62;;;;;;;;;;735215;188;918304;-65
2020/12/21 03:04:18;;;;;;;46.07;22.70;;;;;;;;;;734785;189;919287;-66
2020/12/21 03:06:44;;;;;;;37.87;17.27;;;;;;;;;;731870;188;918706;-67
2020/12/21 03:09:10;;;;;;;42.57;19.53;;;;;;;;;;735134;187;918663;-66
2020/12/21 03:11:37;;;;;;;37.80;18.30;;;;;;;;;;736433;188;919038;-66
2020/12/21 03:14:03;;;;;;;42.67;20.57;;;;;;;;;;728655;190;919202;-67
2020/12/21 03:16:28;;;;;;;43.17;20.17;;;;;;;;;;733005;188;919163;-67
2020/12/21 03:18:54;;;;;;;35.67;19.90;;;;;;;;;;737497;187;918557;-66
2020/12/21 03:21:20;;;;;;;35.47;18.43;;;;;;;;;;739044;187;917537;-67
2020/12/21 03:23:46;;;;;;;44.30;18.90;;;;;;;;;;734600;187;919245;-67
2020/12/21 03:26:12;;;;;;;44.00;21.93;;;;;;;;;;732013;188;919815;-66
2020/12/21 03:28:38;;;;;;;44.40;21.35;;;;;;;;;;742091;188;919198;-66
2020/12/21 03:31:03;;;;;;;40.23;20.47;;;;;;;;;;734281;188;919266;-66
2020/12/21 03:33:29;;;;;;;45.05;20.33;;;;;;;;;;734786;188;918785;-66
2020/12/21 03:35:55;;;;;;;48.17;20.53;;;;;;;;;;737351;188;918690;-67
2020/12/21 03:38:21;;;;;;;48.13;20.87;;;;;;;;;;734508;189;917083;-66
2020/12/21 03:40:47;;;;;;;39.90;20.33;;;;;;;;;;737798;188;916350;-66
2020/12/21 03:43:13;;;;;;;37.53;18.57;;;;;;;;;;733158;190;919406;-65
2020/12/21 03:45:41;;;;;;;38.63;20.13;;;;;;;;;;736582;189;919041;-67
2020/12/21 03:48:08;;;;;;;35.53;16.27;;;;;;;;;;728291;189;919103;-66
2020/12/21 03:50:34;;;;;;;48.80;19.17;;;;;;;;;;737908;189;919486;-67
2020/12/21 03:53:00;;;;;;;37.03;19.47;;;;;;;;;;737617;189;918991;-67
2020/12/21 03:55:25;;;;;;;41.70;20.53;;;;;;;;;;735813;188;918637;-66
2020/12/21 03:57:51;;;;;;;41.50;19.57;;;;;;;;;;733713;188;919031;-67
2020/12/21 04:00:18;;;;;;;43.53;20.57;;;;;;;;;;739701;189;918991;-66
2020/12/21 04:02:43;;;;;;;44.43;19.40;;;;;;;;;;733866;188;918705;-67
2020/12/21 04:05:09;;;;;;;36.27;17.60;;;;;;;;;;735853;189;918687;-67
2020/12/21 04:07:35;;;;;;;45.63;19.93;;;;;;;;;;733570;188;913071;-66
2020/12/21 04:10:00;;;;;;;38.97;19.83;;;;;;;;;;741717;189;942373;-67
2020/12/21 04:12:26;;;;;;;39.23;16.33;;;;;;;;;;733875;189;920008;-67
2020/12/21 04:14:52;;;;;;;43.40;18.97;;;;;;;;;;735947;187;918156;-67
2020/12/21 04:17:18;;;;;;;40.28;19.67;;;;;;;;;;738737;188;919269;-65
2020/12/21 04:19:44;;;;;;;41.20;19.40;;;;;;;;;;738114;188;918847;-66
2020/12/21 04:22:14;;;;;;;42.43;18.73;;;;;;;;;;736027;188;919386;-67
2020/12/21 04:24:40;;;;;;;42.38;18.25;;;;;;;;;;736229;188;918966;-66
2020/12/21 04:27:06;;;;;;;43.93;18.90;;;;;;;;;;733260;188;918845;-66
2020/12/21 04:29:32;;;;;;;42.35;19.30;;;;;;;;;;729707;190;918781;-67
2020/12/21 04:31:57;;;;;;;32.37;16.67;;;;;;;;;;728235;189;918769;-67
2020/12/21 04:34:23;;;;;;;42.63;21.10;;;;;;;;;;739884;188;919281;-66
2020/12/21 04:36:49;;;;;;;41.57;17.00;;;;;;;;;;735018;189;918427;-65
2020/12/21 04:39:15;;;;;;;38.67;19.10;;;;;;;;;;729763;189;918434;-67
2020/12/21 04:41:41;;;;;;;43.20;19.93;;;;;;;;;;739123;189;918992;-67
2020/12/21 04:44:07;;;;;;;46.83;20.27;;;;;;;;;;733167;188;919223;-66
2020/12/21 04:46:33;;;;;;;42.13;19.50;;;;;;;;;;736601;189;1020486;-67
2020/12/21 04:48:59;;;;;;;43.30;19.93;;;;;;;;;;736345;187;962780;-66
2020/12/21 04:51:25;;;;;;;37.13;18.43;;;;;;;;;;735318;189;957327;-67
2020/12/21 04:53:51;;;;;;;41.90;20.10;;;;;;;;;;732895;188;915482;-66
2020/12/21 04:56:17;;;;;;;37.50;19.80;;;;;;;;;;733107;188;930544;-64
2020/12/21 04:58:44;;;;;;;41.33;20.53;;;;;;;;;;739409;188;773300;-65
2020/12/21 05:01:10;;;;;;;45.40;18.07;;;;;;;;;;733113;189;918314;-66
2020/12/21 05:03:35;;;;;;;40.42;19.02;;;;;;;;;;733279;188;926317;-66
2020/12/21 05:06:05;;;;;;;40.67;17.87;;;;;;;;;;735631;189;918012;-66
2020/12/21 05:08:31;;;;;;;37.15;17.67;;;;;;;;;;733800;189;919281;-69
2020/12/21 05:10:57;;;;;;;35.33;18.73;;;;;;;;;;730479;188;1538870;-66
2020/12/21 05:13:23;;;;;;;35.97;18.13;;;;;;;;;;737777;188;620198;-65
2020/12/21 05:15:52;;;;;;;39.87;17.97;;;;;;;;;;730404;189;919040;-66
2020/12/21 05:18:18;;;;;;;35.27;18.07;;;;;;;;;;731662;189;913743;-66
2020/12/21 05:20:45;;;;;;;39.05;17.75;;;;;;;;;;732023;188;916157;-66
2020/12/21 05:23:14;;;;;;;36.57;16.47;;;;;;;;;;737995;188;915578;-65
2020/12/21 05:25:39;;;;;;;40.33;18.75;;;;;;;;;;733900;188;921948;-66
2020/12/21 05:28:10;;;;;;;32.90;15.47;;;;;;;;;;732981;187;915989;-66
2020/12/21 05:30:36;;;;;;;46.07;17.80;;;;;;;;;;732366;187;921950;-66
2020/12/21 05:33:02;;;;;;;36.93;17.97;;;;;;;;;;741935;188;938226;-66
2020/12/21 05:35:28;;;;;;;40.10;19.40;;;;;;;;;;732613;188;916498;-66
2020/12/21 05:37:53;;;;;;;32.30;17.90;;;;;;;;;;735425;188;921528;-66
2020/12/21 05:40:19;;;;;;;32.10;17.13;;;;;;;;;;735793;188;912520;-66
2020/12/21 05:42:45;;;;;;;40.63;15.90;;;;;;;;;;738524;187;916433;-65
2020/12/21 05:45:11;;;;;;;34.27;17.50;;;;;;;;;;735704;188;919885;-66
2020/12/21 05:47:37;;;;;;;27.33;15.73;;;;;;;;;;736538;188;911308;-66
2020/12/21 05:50:03;;;;;;;38.77;17.77;;;;;;;;;;736164;189;916712;-66
2020/12/21 05:52:34;;;;;;;35.70;17.23;;;;;;;;;;733903;189;919010;-66
2020/12/21 05:55:00;;;;;;;33.30;15.80;;;;;;;;;;733749;189;919063;-66
2020/12/21 05:57:27;;;;;;;36.07;16.60;;;;;;;;;;738408;189;922292;-66
2020/12/21 05:59:52;;;;;;;32.63;15.00;;;;;;;;;;736545;189;918691;-65
2020/12/21 06:02:18;;;;;;;36.07;17.90;;;;;;;;;;734005;188;918518;-65
2020/12/21 06:04:43;;;;;;;28.43;16.37;;;;;;;;;;739857;189;918699;-66
2020/12/21 06:07:14;;;;;;;31.50;15.60;;;;;;;;;;733156;189;918598;-65
2020/12/21 06:09:40;;;;;;;37.87;18.07;;;;;;;;;;723573;189;919157;-66
2020/12/21 06:12:06;;;;;;;30.57;17.00;;;;;;;;;;730193;189;919201;-65
2020/12/21 06:14:32;;;;;;;31.70;16.67;;;;;;;;;;738494;189;919244;-66
2020/12/21 06:16:57;;;;;;;30.50;15.37;;;;;;;;;;732386;188;918614;-65
2020/12/21 06:19:23;;;;;;;29.23;14.17;;;;;;;;;;734730;188;919991;-66
2020/12/21 06:21:50;;;;;;;33.77;14.97;;;;;;;;;;735787;189;919388;-65
2020/12/21 06:24:16;;;;;;;26.23;14.70;;;;;;;;;;731904;188;928263;-66
2020/12/21 06:26:42;;;;;;;25.50;15.17;;;;;;;;;;734305;188;918300;-66
2020/12/21 06:29:08;;;;;;;35.22;16.33;;;;;;;;;;736809;188;919255;-66
2020/12/21 06:31:37;;;;;;;30.47;15.23;;;;;;;;;;736394;189;914829;-65
2020/12/21 06:34:03;;;;;;;28.60;15.10;;;;;;;;;;724218;189;926019;-66
2020/12/21 06:36:30;;;;;;;26.10;13.62;;;;;;;;;;736034;188;915766;-65
2020/12/21 06:38:55;;;;;;;29.33;15.43;;;;;;;;;;737466;188;977426;-66
2020/12/21 06:41:23;;;;;;;28.63;15.93;;;;;;;;;;737761;187;919380;-66
2020/12/21 06:43:54;;;;;;;30.50;14.23;;;;;;;;;;733547;188;918849;-66
2020/12/21 06:46:20;;;;;;;32.00;15.70;;;;;;;;;;735232;188;918536;-65
2020/12/21 06:48:45;;;;;;;26.03;14.10;;;;;;;;;;737810;188;918767;-64
2020/12/21 06:51:11;;;;;;;27.77;13.50;;;;;;;;;;733695;187;1075032;-66
2020/12/21 06:53:37;;;;;;;24.90;12.57;;;;;;;;;;733164;188;918549;-66
2020/12/21 06:56:03;;;;;;;26.50;14.60;;;;;;;;;;739717;188;918888;-66
2020/12/21 06:58:34;;;;;;;27.27;13.50;;;;;;;;;;733218;188;919238;-65
2020/12/21 07:00:59;;;;;;;30.23;13.77;;;;;;;;;;734986;189;1021930;-66
2020/12/21 07:03:25;;;;;;;23.43;13.40;;;;;;;;;;732561;189;918923;-64
2020/12/21 07:05:56;;;;;;;21.33;12.90;;;;;;;;;;721363;189;918106;-66
2020/12/21 07:08:22;;;;;;;31.83;15.70;;;;;;;;;;732160;189;866842;-66
2020/12/21 07:10:48;;;;;;;29.00;14.70;;;;;;;;;;730424;189;918763;-65
2020/12/21 07:13:13;;;;;;;30.00;14.60;;;;;;;;;;739366;189;919241;-65
2020/12/21 07:15:39;;;;;;;27.90;14.27;;;;;;;;;;733547;188;919149;-67
2020/12/21 07:18:05;;;;;;;27.67;15.33;;;;;;;;;;733246;189;923493;-66
2020/12/21 07:20:31;;;;;;;23.38;12.00;;;;;;;;;;735342;189;918764;-66
2020/12/21 07:22:57;;;;;;;26.63;14.30;;;;;;;;;;734689;189;919050;-65
2020/12/21 07:25:23;;;;;;;28.63;14.50;;;;;;;;;;730723;188;918040;-65
2020/12/21 07:27:49;;;;;;;25.70;13.13;;;;;;;;;;733727;189;924048;-65
2020/12/21 07:30:15;;;;;;;30.23;13.20;;;;;;;;;;727129;189;919031;-66
2020/12/21 07:32:40;;;;;;;22.57;12.67;;;;;;;;;;724298;190;918929;-65
2020/12/21 07:35:06;;;;;;;29.10;14.60;;;;;;;;;;732469;189;923455;-65
2020/12/21 07:37:32;;;;;;;28.07;15.67;;;;;;;;;;739691;189;919086;-66
2020/12/21 07:39:58;;;;;;;32.92;14.50;;;;;;;;;;733569;189;920195;-66
2020/12/21 07:42:24;;;;;;;26.50;13.67;;;;;;;;;;736009;189;919528;-65
2020/12/21 07:44:50;;;;;;;28.62;14.38;;;;;;;;;;738873;188;918733;-65
2020/12/21 07:47:16;;;;;;;25.37;13.27;;;;;;;;;;733577;188;919547;-65
2020/12/21 07:49:42;;;;;;;29.50;13.50;;;;;;;;;;736876;186;918467;-65
2020/12/21 07:52:08;;;;;;;26.63;14.87;;;;;;;;;;734894;188;919035;-65
2020/12/21 07:54:34;;;;;;;24.73;12.80;;;;;;;;;;722452;188;919517;-65
2020/12/21 07:57:00;;;;;;;28.02;14.23;;;;;;;;;;730790;188;918508;-66
2020/12/21 07:59:25;;;;;;;22.23;13.67;;;;;;;;;;734869;188;919153;-65
2020/12/21 08:01:51;;;;;;;28.60;14.03;;;;;;;;;;738873;188;918145;-66
2020/12/21 08:04:17;;;;;;;21.83;12.17;;;;;;;;;;735847;188;919743;-66
2020/12/21 08:06:43;;;;;;;31.93;15.77;;;;;;;;;;734529;188;919067;-65
2020/12/21 08:09:09;;;;;;;22.83;13.90;;;;;;;;;;737187;188;918944;-66
2020/12/21 08:11:35;;;;;;;25.83;15.00;;;;;;;;;;733960;188;919678;-64
2020/12/21 08:14:00;;;;;;;27.00;15.20;;;;;;;;;;735352;189;917658;-66
2020/12/21 08:16:27;;;;;;;25.30;13.80;;;;;;;;;;736294;188;922353;-66
2020/12/21 08:18:52;;;;;;;19.90;13.80;;;;;;;;;;736021;189;918416;-66
2020/12/21 08:21:21;;;;;;;25.12;14.65;;;;;;;;;;734330;189;940883;-65
2020/12/21 08:23:58;;;;;;;27.07;13.97;;;;;;;;;;731800;188;915649;-65
2020/12/21 08:26:24;;;;;;;23.70;13.90;;;;;;;;;;733193;189;916369;-64
2020/12/21 08:28:49;;;;;;;24.40;14.07;;;;;;;;;;724012;190;915424;-65
2020/12/21 08:31:18;;;;;;;26.67;14.10;;;;;;;;;;733446;189;919319;-66
2020/12/21 08:33:42;;;;;;;26.47;16.37;;;;;;;;;;725181;188;1265459;-64
2020/12/21 08:36:14;;;;;;;25.90;14.97;;;;;;;;;;730075;190;918460;-65
2020/12/21 08:38:40;;;;;;;24.00;14.57;;;;;;;;;;729323;191;918942;-66
2020/12/21 08:41:05;;;;;;;23.13;14.43;;;;;;;;;;731700;189;919076;-66
2020/12/21 08:43:32;;;;;;;22.37;12.63;;;;;;;;;;734783;189;919062;-64
2020/12/21 08:45:58;;;;;;;21.50;12.47;;;;;;;;;;731509;190;918073;-66
2020/12/21 08:48:23;;;;;;;24.10;13.10;;;;;;;;;;727699;189;919129;-66
2020/12/21 08:50:49;;;;;;;25.97;13.60;;;;;;;;;;734679;189;918077;-66
2020/12/21 08:53:15;;;;;;;17.73;11.23;;;;;;;;;;733566;189;1576536;-65
2020/12/21 08:55:41;;;;;;;20.77;11.87;;;;;;;;;;735854;188;920088;-66
2020/12/21 08:58:07;;;;;;;19.73;12.47;;;;;;;;;;733460;189;918989;-64
2020/12/21 09:00:33;;;;;;;23.57;12.17;;;;;;;;;;739446;189;919336;-66
2020/12/21 09:02:59;;;;;;;18.20;11.47;;;;;;;;;;735090;188;918962;-66
2020/12/21 09:05:25;;;;;;;26.30;11.93;;;;;;;;;;733700;188;918510;-66
2020/12/21 09:07:51;;;;;;;17.70;10.47;;;;;;;;;;739974;188;1011848;-66
2020/12/21 09:10:17;;;;;;;18.90;10.27;;;;;;;;;;733935;188;917559;-66
2020/12/21 09:12:42;;;;;;;16.83;10.77;;;;;;;;;;738634;188;918606;-65
2020/12/21 09:15:08;;;;;;;21.97;11.50;;;;;;;;;;731689;187;918877;-66
2020/12/21 09:17:36;;;;;;;18.23;12.90;;;;;;;;;;742431;187;919625;-65
2020/12/21 09:20:00;;;;;;;23.50;12.13;;;;;;;;;;735295;188;1022082;-66
2020/12/21 09:22:26;;;;;;;22.70;12.40;;;;;;;;;;736031;187;918447;-65
2020/12/21 09:24:52;;;;;;;18.27;11.80;;;;;;;;;;737542;189;917745;-65
2020/12/21 09:27:17;;;;;;;18.50;11.87;;;;;;;;;;736552;189;919370;-65
2020/12/21 09:29:43;;;;;;;21.87;11.03;;;;;;;;;;730791;187;921674;-65
2020/12/21 09:32:09;;;;;;;19.50;12.30;;;;;;;;;;738990;189;918816;-66
2020/12/21 09:34:35;;;;;;;19.67;12.03;;;;;;;;;;731620;188;914429;-64
2020/12/21 09:37:02;;;;;;;22.83;11.00;;;;;;;;;;732619;189;917969;-65
2020/12/21 09:39:27;;;;;;;16.43;11.60;;;;;;;;;;735106;188;918703;-67
2020/12/21 09:41:55;;;;;;;15.43;10.83;;;;;;;;;;734769;189;919002;-65
2020/12/21 09:44:20;;;;;;;14.13;10.10;;;;;;;;;;736858;189;919054;-66
2020/12/21 09:46:45;;;;;;;14.63;9.30;;;;;;;;;;730563;189;930251;-65
2020/12/21 09:49:11;;;;;;;16.10;10.20;;;;;;;;;;741119;189;918706;-65
2020/12/21 09:51:36;;;;;;;15.50;9.93;;;;;;;;;;735200;187;919226;-66
2020/12/21 09:54:02;;;;;;;16.17;9.57;;;;;;;;;;735760;188;912951;-64
2020/12/21 09:56:28;;;;;;;17.12;9.68;;;;;;;;;;738234;189;913582;-65
2020/12/21 09:58:54;;;;;;;19.23;12.13;;;;;;;;;;737754;188;914643;-66
2020/12/21 10:01:20;;;;;;;14.63;10.13;;;;;;;;;;733703;188;915739;-65
2020/12/21 10:03:46;;;;;;;19.47;10.87;;;;;;;;;;740100;189;916347;-65
2020/12/21 10:06:12;;;;;;;19.67;11.07;;;;;;;;;;733195;189;919787;-66
2020/12/21 10:08:37;;;;;;;14.23;9.87;;;;;;;;;;734233;189;917991;-65
2020/12/21 10:11:03;;;;;;;18.97;10.90;;;;;;;;;;730455;188;919067;-65
2020/12/21 10:13:29;;;;;;;16.50;10.07;;;;;;;;;;740610;188;1036470;-65
2020/12/21 10:15:56;;;;;;;16.90;10.40;;;;;;;;;;733939;188;914396;-66
2020/12/21 10:18:22;;;;;;;19.05;10.70;;;;;;;;;;735794;187;915349;-67
2020/12/21 10:20:47;;;;;;;16.37;10.03;;;;;;;;;;740236;188;909809;-65
2020/12/21 10:23:14;;;;;;;17.20;11.10;;;;;;;;;;731219;187;1244687;-66
2020/12/21 10:25:39;;;;;;;16.90;10.43;;;;;;;;;;730381;188;915454;-66
2020/12/21 10:28:05;;;;;;;18.45;11.02;;;;;;;;;;737773;188;915610;-65
2020/12/21 10:30:31;;;;;;;16.93;10.13;;;;;;;;;;736010;188;915845;-65
2020/12/21 10:32:57;;;;;;;18.20;11.57;;;;;;;;;;721078;189;915395;-65
2020/12/21 10:35:23;;;;;;;16.70;10.40;;;;;;;;;;733261;187;916126;-66
2020/12/21 10:37:48;;;;;;;17.67;11.10;;;;;;;;;;723583;190;915409;-65
2020/12/21 10:40:14;;;;;;;11.40;8.90;;;;;;;;;;735807;188;920594;-65
2020/12/21 10:42:40;;;;;;;20.67;10.73;;;;;;;;;;730049;188;919314;-65
2020/12/21 10:45:06;;;;;;;16.93;10.93;;;;;;;;;;739975;187;925808;-65
2020/12/21 10:47:32;;;;;;;17.57;11.07;;;;;;;;;;728683;188;1633414;-65
2020/12/21 10:49:58;;;;;;;18.33;10.90;;;;;;;;;;732627;188;990523;-65
2020/12/21 10:52:23;;;;;;;19.05;10.60;;;;;;;;;;737653;188;920307;-65
2020/12/21 10:54:49;;;;;;;16.90;10.73;;;;;;;;;;737804;187;919285;-65
2020/12/21 10:57:15;;;;;;;13.57;8.90;;;;;;;;;;734564;189;918343;-64
2020/12/21 10:59:41;;;;;;;15.73;9.43;;;;;;;;;;726920;189;917554;-65
2020/12/21 11:02:07;;;;;;;18.73;11.20;;;;;;;;;;724215;192;918490;-65
2020/12/21 11:04:33;;;;;;;17.73;9.77;;;;;;;;;;718714;191;924440;-65
2020/12/21 11:06:59;;;;;;;19.30;12.73;;;;;;;;;;720281;192;919497;-65
2020/12/21 11:09:24;;;;;;;15.17;10.03;;;;;;;;;;725507;191;1014813;-65
2020/12/21 11:11:50;;;;;;;16.10;9.70;;;;;;;;;;724471;191;916239;-65
2020/12/21 11:14:16;;;;;;;16.27;9.00;;;;;;;;;;721239;191;914248;-65
2020/12/21 11:16:42;;;;;;;18.00;10.97;;;;;;;;;;727863;192;919370;-64
2020/12/21 11:19:08;;;;;;;22.77;10.85;;;;;;;;;;722316;191;1047985;-65
2020/12/21 11:21:35;;;;;;;16.80;11.53;;;;;;;;;;724203;192;918908;-65
2020/12/21 11:24:01;;;;;;;16.37;10.93;;;;;;;;;;724601;191;915143;-65
2020/12/21 11:26:27;;;;;;;21.50;11.80;;;;;;;;;;726558;190;914792;-64
2020/12/21 11:28:53;;;;;;;16.93;9.30;;;;;;;;;;722956;191;915681;-65
2020/12/21 11:31:19;;;;;;;21.30;11.73;;;;;;;;;;722882;191;916233;-64
2020/12/21 11:33:45;;;;;;;17.53;10.67;;;;;;;;;;729392;191;917354;-65
2020/12/21 11:36:11;;;;;;;18.43;10.70;;;;;;;;;;723386;192;915075;-65
2020/12/21 11:38:37;;;;;;;22.08;10.85;;;;;;;;;;723046;191;923257;-65
2020/12/21 11:41:03;;;;;;;18.03;11.80;;;;;;;;;;727137;191;915629;-66
2020/12/21 11:43:29;;;;;;;15.07;10.50;;;;;;;;;;724884;192;915679;-65
2020/12/21 11:45:54;;;;;;;19.93;11.17;;;;;;;;;;720668;192;916090;-65
2020/12/21 11:48:20;;;;;;;20.33;10.60;;;;;;;;;;729304;191;916268;-65
2020/12/21 11:50:46;;;;;;;16.40;9.57;;;;;;;;;;722229;191;916572;-65
2020/12/21 11:53:12;;;;;;;16.83;10.40;;;;;;;;;;724756;191;916565;-65
2020/12/21 11:55:38;;;;;;;18.85;11.50;;;;;;;;;;721800;192;918499;-64
2020/12/21 11:58:04;;;;;;;17.77;10.17;;;;;;;;;;715633;193;918954;-65
2020/12/21 12:00:30;;;;;;;16.37;10.10;;;;;;;;;;723729;191;919251;-64
2020/12/21 12:02:56;;;;;;;16.50;10.60;;;;;;;;;;721525;191;932094;-65
2020/12/21 12:05:22;;;;;;;21.67;11.97;;;;;;;;;;726034;192;919052;-65
2020/12/21 12:07:48;;;;;;;20.03;12.77;;;;;;;;;;719995;192;919208;-66
2020/12/21 12:10:15;;;;;;;16.63;9.53;;;;;;;;;;723393;191;918497;-64
2020/12/21 12:12:41;;;;;;;20.10;12.17;;;;;;;;;;724221;191;918106;-66
2020/12/21 12:15:06;;;;;;;16.37;11.60;;;;;;;;;;718270;192;919521;-64
2020/12/21 12:17:32;;;;;;;19.17;12.30;;;;;;;;;;716715;191;1725744;-65
2020/12/21 12:19:58;;;;;;;24.10;13.20;;;;;;;;;;727402;192;918941;-65
2020/12/21 12:22:24;;;;;;;22.23;13.60;;;;;;;;;;719855;191;919143;-66
2020/12/21 12:24:50;;;;;;;23.77;14.40;;;;;;;;;;724523;191;919124;-66
2020/12/21 12:27:16;;;;;;;24.30;14.57;;;;;;;;;;720573;191;918911;-65
2020/12/21 12:29:42;;;;;;;22.70;13.80;;;;;;;;;;729258;191;919892;-65
2020/12/21 12:32:07;;;;;;;24.53;15.77;;;;;;;;;;721154;192;919434;-66
2020/12/21 12:34:33;;;;;;;27.10;14.30;;;;;;;;;;722704;192;918911;-64
2020/12/21 12:36:59;;;;;;;21.13;13.33;;;;;;;;;;728607;191;919161;-64
2020/12/21 12:39:25;;;;;;;19.67;13.10;;;;;;;;;;722947;191;915567;-66
2020/12/21 12:41:51;;;;;;;23.17;13.23;;;;;;;;;;715873;191;915240;-65
2020/12/21 12:44:17;;;;;;;20.57;14.33;;;;;;;;;;728295;192;919143;-65
2020/12/21 12:46:42;;;;;;;24.30;12.20;;;;;;;;;;723916;192;919588;-65
2020/12/21 12:49:08;;;;;;;25.23;12.97;;;;;;;;;;724396;191;919418;-65
2020/12/21 12:51:36;;;;;;;23.37;13.77;;;;;;;;;;722025;192;918952;-65
2020/12/21 12:54:00;;;;;;;21.12;12.85;;;;;;;;;;717866;194;918266;-66
2020/12/21 12:56:27;;;;;;;25.17;12.47;;;;;;;;;;720491;192;918822;-66
2020/12/21 12:58:52;;;;;;;18.58;12.27;;;;;;;;;;719524;191;976369;-64
2020/12/21 13:01:18;;;;;;;22.10;11.70;;;;;;;;;;728627;192;918593;-65
2020/12/21 13:03:43;;;;;;;21.37;12.27;;;;;;;;;;720764;192;918866;-65
2020/12/21 13:06:10;;;;;;;22.10;11.83;;;;;;;;;;723029;191;921917;-65
2020/12/21 13:08:36;;;;;;;22.57;12.20;;;;;;;;;;726315;191;917681;-66
2020/12/21 13:11:02;;;;;;;21.30;11.00;;;;;;;;;;723593;191;1020458;-66
2020/12/21 13:13:27;;;;;;;23.00;12.27;;;;;;;;;;720557;191;914121;-66
2020/12/21 13:15:54;;;;;;;19.83;13.10;;;;;;;;;;725322;191;960147;-64
2020/12/21 13:18:20;;;;;;;21.60;13.07;;;;;;;;;;718157;192;916823;-66
2020/12/21 13:20:46;;;;;;;26.37;13.20;;;;;;;;;;720582;191;915033;-66
2020/12/21 13:23:11;;;;;;;20.87;12.03;;;;;;;;;;720467;191;989607;-66
2020/12/21 13:25:37;;;;;;;24.13;13.90;;;;;;;;;;729291;191;912530;-65
2020/12/21 13:28:03;;;;;;;20.35;12.95;;;;;;;;;;724020;192;911859;-65
2020/12/21 13:30:29;;;;;;;20.53;12.50;;;;;;;;;;720352;192;828132;-66
2020/12/21 13:32:55;;;;;;;21.10;12.10;;;;;;;;;;727798;192;918543;-66
2020/12/21 13:35:21;;;;;;;22.93;12.83;;;;;;;;;;719761;192;918986;-65
2020/12/21 13:37:47;;;;;;;26.40;14.07;;;;;;;;;;724353;192;920179;-65
2020/12/21 13:40:12;;;;;;;21.27;13.00;;;;;;;;;;725646;191;902309;-67
2020/12/21 13:42:38;;;;;;;26.90;13.77;;;;;;;;;;723700;192;918586;-67
2020/12/21 13:45:06;;;;;;;23.90;13.07;;;;;;;;;;721339;191;950507;-66
2020/12/21 13:47:30;;;;;;;23.43;13.17;;;;;;;;;;723556;190;946033;-66
2020/12/21 13:49:56;;;;;;;25.60;12.60;;;;;;;;;;727670;191;922018;-67
2020/12/21 13:52:22;;;;;;;21.48;12.02;;;;;;;;;;723275;192;918716;-66
2020/12/21 13:54:48;;;;;;;21.53;13.30;;;;;;;;;;721523;191;918738;-67
2020/12/21 13:57:14;;;;;;;22.73;12.70;;;;;;;;;;728967;192;918098;-67